Time;durP1;ratioP1;P1;durP2;ratioP2;P2;SDS_P1;SDS_P2;PMS_P1;PMS_P2;Temp;Humidity;BMP_temperature;BMP_pressure;BME280_temperature;BME280_humidity;BME280_pressure;Samples;Min_cycle;Max_cycle;Signal;HPM_P1;HPM_P2
2024/04/23 00:02:06;;;;;;;4.80;2.85;;;5.80;92.30;;;;;;5307745;26;20383;-81
2024/04/23 00:04:32;;;;;;;3.58;2.53;;;5.80;92.30;;;;;;5296202;26;20001;-81
2024/04/23 00:06:59;;;;;;;4.15;2.97;;;5.80;92.40;;;;;;5318856;26;20322;-81
2024/04/23 00:09:26;;;;;;;4.75;2.88;;;5.80;92.40;;;;;;5319567;26;20013;-81
2024/04/23 00:11:52;;;;;;;2.95;2.30;;;5.80;92.40;;;;;;5319660;26;19997;-82
2024/04/23 00:14:18;;;;;;;3.40;2.45;;;5.70;92.50;;;;;;5327124;26;20028;-81
2024/04/23 00:16:55;;;;;;;3.72;2.92;;;5.70;92.50;;;;;;5339927;26;20077;-81
2024/04/23 00:19:20;;;;;;;4.15;2.67;;;5.70;92.60;;;;;;5351334;26;19992;-81
2024/04/23 00:21:46;;;;;;;3.47;2.70;;;5.70;92.50;;;;;;5376641;26;20045;-83
2024/04/23 00:24:11;;;;;;;3.97;2.90;;;5.70;92.60;;;;;;5332920;26;20022;-80
2024/04/23 00:26:38;;;;;;;4.03;2.72;;;5.70;92.70;;;;;;5351946;26;20005;-81
2024/04/23 00:29:03;;;;;;;3.65;2.60;;;5.60;93.00;;;;;;5294888;26;20000;-82
2024/04/23 00:31:32;;;;;;;3.90;2.58;;;5.60;92.80;;;;;;5343913;26;20008;-81
2024/04/23 00:33:58;;;;;;;4.03;2.90;;;5.60;92.80;;;;;;5318625;26;19993;-82
2024/04/23 00:36:23;;;;;;;4.80;2.70;;;5.60;92.90;;;;;;5348668;26;20015;-81
2024/04/23 00:38:49;;;;;;;3.85;2.88;;;5.50;92.90;;;;;;5347421;26;20007;-82
2024/04/23 00:41:14;;;;;;;4.13;2.95;;;5.50;93.00;;;;;;5336861;26;20435;-81
2024/04/23 00:43:40;;;;;;;4.13;2.78;;;5.50;93.00;;;;;;5318572;26;20426;-81
2024/04/23 00:46:09;;;;;;;3.53;2.63;;;5.50;93.10;;;;;;5326401;26;20001;-81
2024/04/23 00:48:35;;;;;;;3.25;2.80;;;5.40;93.10;;;;;;5349281;26;20066;-82
2024/04/23 00:51:01;;;;;;;4.32;3.17;;;5.50;93.10;;;;;;5323782;26;20001;-81
2024/04/23 00:53:26;;;;;;;3.65;2.80;;;5.50;93.10;;;;;;5343032;26;20456;-82
2024/04/23 00:55:52;;;;;;;3.72;2.80;;;5.50;93.20;;;;;;5292587;26;20070;-82
2024/04/23 00:58:18;;;;;;;5.15;2.80;;;5.40;93.20;;;;;;5353466;26;20004;-81
2024/04/23 01:00:44;;;;;;;5.05;3.42;;;5.40;93.30;;;;;;5296055;26;20008;-81
2024/04/23 01:03:10;;;;;;;4.53;3.13;;;5.40;93.30;;;;;;5352563;26;20439;-82
2024/04/23 01:05:36;;;;;;;4.13;3.05;;;5.30;93.50;;;;;;5333549;26;20001;-81
2024/04/23 01:08:01;;;;;;;3.65;2.95;;;5.30;93.60;;;;;;5326328;26;20008;-81
2024/04/23 01:10:27;;;;;;;4.25;3.00;;;5.30;93.60;;;;;;5318399;26;20008;-82
2024/04/23 01:12:53;;;;;;;3.95;3.13;;;5.30;93.60;;;;;;5383441;26;19992;-82
2024/04/23 01:15:21;;;;;;;4.30;3.25;;;5.30;93.60;;;;;;5316872;26;20433;-82
2024/04/23 01:17:49;;;;;;;4.82;3.25;;;5.30;93.70;;;;;;5335153;26;20015;-82
2024/04/23 01:20:16;;;;;;;4.18;3.20;;;5.20;93.70;;;;;;5357757;26;20334;-81
2024/04/23 01:23:08;;;;;;;4.63;3.38;;;5.20;93.80;;;;;;5342403;26;20001;-82
2024/04/23 01:25:35;;;;;;;;;;;5.20;93.90;;;;;;5384194;26;20011;-81
2024/04/23 01:28:01;;;;;;;5.93;3.60;;;5.30;93.90;;;;;;5378217;26;19933;-82
2024/04/23 01:30:26;;;;;;;3.75;2.97;;;5.30;93.80;;;;;;5324069;26;20335;-81
2024/04/23 01:32:53;;;;;;;4.38;3.25;;;5.30;93.90;;;;;;5295942;26;20010;-81
2024/04/23 01:35:20;;;;;;;3.45;3.03;;;5.30;93.90;;;;;;5352797;26;20011;-81
2024/04/23 01:37:50;;;;;;;4.60;3.05;;;5.30;93.90;;;;;;5389399;26;20008;-83
2024/04/23 01:40:16;;;;;;;5.30;3.30;;;5.30;93.90;;;;;;5403259;26;20155;-82
2024/04/23 01:42:43;;;;;;;6.00;3.90;;;5.30;94.00;;;;;;5345744;26;20037;-82
2024/04/23 01:45:15;;;;;;;4.95;3.03;;;5.30;94.00;;;;;;5336658;26;20004;-80
2024/04/23 01:47:41;;;;;;;;;;;5.30;94.10;;;;;;5313244;26;20007;-81
2024/04/23 01:50:07;;;;;;;4.97;3.72;;;5.20;94.10;;;;;;5350036;26;19926;-81
2024/04/23 01:52:33;;;;;;;5.05;3.40;;;5.20;94.10;;;;;;5323817;26;20043;-81
2024/04/23 01:54:59;;;;;;;6.65;3.40;;;5.20;94.10;;;;;;5317865;26;20317;-81
2024/04/23 01:57:24;;;;;;;4.78;3.20;;;5.10;94.20;;;;;;5350880;26;20001;-82
2024/04/23 02:00:02;;;;;;;5.75;3.28;;;5.10;94.20;;;;;;5346010;26;20365;-81
2024/04/23 02:02:32;;;;;;;4.88;3.38;;;5.10;94.30;;;;;;5317484;26;19997;-81
2024/04/23 02:04:59;;;;;;;5.45;3.80;;;5.10;94.30;;;;;;5313703;26;19997;-81
2024/04/23 02:07:25;;;;;;;4.55;3.75;;;5.10;94.40;;;;;;5345960;26;20011;-81
2024/04/23 02:09:51;;;;;;;5.45;3.90;;;5.10;94.40;;;;;;5342711;26;20004;-81
2024/04/23 02:12:17;;;;;;;4.47;3.67;;;5.00;94.50;;;;;;5358635;26;19993;-81
2024/04/23 02:14:42;;;;;;;5.05;3.30;;;5.00;94.50;;;;;;5261031;26;19997;-81
2024/04/23 02:17:08;;;;;;;5.47;3.70;;;5.00;94.50;;;;;;5322000;26;20011;-82
2024/04/23 02:19:34;;;;;;;5.45;3.85;;;5.00;94.60;;;;;;5345641;26;20001;-81
2024/04/23 02:22:00;;;;;;;6.07;3.78;;;5.00;94.70;;;;;;5345584;26;20421;-82
2024/04/23 02:24:25;;;;;;;4.00;3.60;;;4.90;94.70;;;;;;5346271;26;20432;-81
2024/04/23 02:26:51;;;;;;;5.72;3.67;;;4.90;94.70;;;;;;5317059;26;19997;-82
2024/04/23 02:29:19;;;;;;;5.30;3.45;;;4.90;94.80;;;;;;5301877;26;20004;-81
2024/04/23 02:31:45;;;;;;;4.75;3.53;;;4.90;94.80;;;;;;5307737;26;20000;-81
2024/04/23 02:34:11;;;;;;;4.55;3.80;;;4.90;94.80;;;;;;5313323;26;20518;-81
2024/04/23 02:36:37;;;;;;;5.32;3.42;;;4.80;94.80;;;;;;5362544;26;20000;-81
2024/04/23 02:39:03;;;;;;;6.50;4.28;;;4.80;94.80;;;;;;5311825;26;20367;-81
2024/04/23 02:41:29;;;;;;;6.75;4.05;;;4.80;95.10;;;;;;5310424;26;20005;-81
2024/04/23 02:43:54;;;;;;;5.35;4.32;;;4.80;94.90;;;;;;5291057;26;20409;-81
2024/04/23 02:46:20;;;;;;;4.90;4.10;;;4.80;95.00;;;;;;5342426;26;20017;-81
2024/04/23 02:48:46;;;;;;;6.05;4.00;;;4.80;95.00;;;;;;5349105;26;20016;-81
2024/04/23 02:51:11;;;;;;;6.82;4.10;;;4.70;95.00;;;;;;5313591;26;20337;-81
2024/04/23 02:53:37;;;;;;;6.03;4.03;;;4.80;95.10;;;;;;5352548;26;20007;-80
2024/04/23 02:56:03;;;;;;;7.57;4.25;;;4.70;95.20;;;;;;5381797;26;20447;-81
2024/04/23 02:58:28;;;;;;;4.88;3.75;;;4.70;95.20;;;;;;5323088;26;20000;-81
2024/04/23 03:00:54;;;;;;;6.50;4.43;;;4.70;95.20;;;;;;5345727;26;20008;-83
2024/04/23 03:03:19;;;;;;;5.68;4.20;;;4.60;95.20;;;;;;5347093;26;19981;-85
2024/04/23 03:05:45;;;;;;;7.68;4.40;;;4.60;95.30;;;;;;5311936;26;19999;-81
2024/04/23 03:08:11;;;;;;;6.00;4.00;;;4.50;95.30;;;;;;5300457;26;20017;-82
2024/04/23 03:10:36;;;;;;;5.18;3.92;;;4.50;95.40;;;;;;5303749;26;20001;-82
2024/04/23 03:13:02;;;;;;;7.05;4.50;;;4.50;95.40;;;;;;5310596;26;19993;-82
2024/04/23 03:15:27;;;;;;;6.78;4.07;;;4.50;95.40;;;;;;5322954;26;20005;-82
2024/04/23 03:17:53;;;;;;;4.95;3.95;;;4.50;95.50;;;;;;5311815;26;20012;-82
2024/04/23 03:20:19;;;;;;;6.05;4.30;;;4.50;95.50;;;;;;5336782;26;20041;-82
2024/04/23 03:22:45;;;;;;;5.30;4.15;;;4.50;95.60;;;;;;5293938;26;19996;-82
2024/04/23 03:25:10;;;;;;;5.90;4.35;;;4.40;95.60;;;;;;5293042;26;20012;-83
2024/04/23 03:27:36;;;;;;;5.93;4.40;;;4.50;95.70;;;;;;5321324;26;20000;-82
2024/04/23 03:30:02;;;;;;;6.03;4.43;;;4.40;95.70;;;;;;5341955;26;20000;-82
2024/04/23 03:32:27;;;;;;;5.60;4.53;;;4.40;95.70;;;;;;5343731;26;20004;-81
2024/04/23 03:34:53;;;;;;;7.22;4.55;;;4.40;95.70;;;;;;5345302;26;20428;-82
2024/04/23 03:37:18;;;;;;;6.70;5.15;;;4.30;95.80;;;;;;5370308;26;20309;-82
2024/04/23 03:39:44;;;;;;;6.80;4.72;;;4.30;95.80;;;;;;5332221;26;20443;-82
2024/04/23 03:42:10;;;;;;;5.93;4.72;;;4.30;95.80;;;;;;5344897;26;20001;-83
2024/04/23 03:44:35;;;;;;;7.47;4.50;;;4.30;95.90;;;;;;5319620;26;20015;-82
2024/04/23 03:47:01;;;;;;;6.50;5.07;;;4.30;95.90;;;;;;5305706;26;19996;-82
2024/04/23 03:49:26;;;;;;;7.32;4.97;;;4.30;95.90;;;;;;5319861;26;20066;-82
2024/04/23 03:51:52;;;;;;;7.13;5.28;;;4.30;95.90;;;;;;5307178;26;20062;-81
2024/04/23 03:54:18;;;;;;;7.05;5.25;;;4.30;96.00;;;;;;5309312;26;20391;-82
2024/04/23 03:56:43;;;;;;;6.55;5.07;;;4.30;96.00;;;;;;5337054;26;20008;-82
2024/04/23 03:59:09;;;;;;;8.05;5.20;;;4.30;96.00;;;;;;5354452;26;20007;-82
2024/04/23 04:01:35;;;;;;;5.82;4.75;;;4.30;96.00;;;;;;5315339;26;20011;-82
2024/04/23 04:06:44;;;;;;;6.22;5.00;;;4.20;96.10;;;;;;5353882;26;20438;-82
2024/04/23 04:09:10;;;;;;;6.82;5.13;;;4.20;96.10;;;;;;5384190;26;20170;-81
2024/04/23 04:11:37;;;;;;;7.03;5.20;;;4.20;96.20;;;;;;5348560;26;20012;-81
2024/04/23 04:14:03;;;;;;;6.40;5.35;;;4.10;96.20;;;;;;5319740;26;19997;-81
2024/04/23 04:16:29;;;;;;;6.28;5.07;;;4.10;96.20;;;;;;5363395;26;20004;-81
2024/04/23 04:18:55;;;;;;;6.25;5.20;;;4.10;96.30;;;;;;5355365;26;20004;-81
2024/04/23 04:21:21;;;;;;;7.68;5.95;;;4.10;96.30;;;;;;5389547;26;20000;-80
2024/04/23 04:24:05;;;;;;;6.50;5.30;;;4.00;96.40;;;;;;5360871;26;19992;-80
2024/04/23 04:26:30;;;;;;;6.57;5.47;;;4.00;96.40;;;;;;5370631;26;20205;-79
2024/04/23 04:28:56;;;;;;;6.75;5.68;;;4.00;96.50;;;;;;5302195;26;20391;-81
2024/04/23 04:31:22;;;;;;;6.03;5.05;;;4.00;96.50;;;;;;5339625;26;19996;-81
2024/04/23 04:33:47;;;;;;;6.28;4.90;;;4.00;96.50;;;;;;5356023;26;20028;-80
2024/04/23 04:36:13;;;;;;;6.90;5.47;;;4.00;96.50;;;;;;5329009;26;20008;-81
2024/04/23 04:38:39;;;;;;;8.35;5.20;;;4.00;96.50;;;;;;5309661;26;20074;-81
2024/04/23 04:41:05;;;;;;;6.63;5.03;;;4.00;96.80;;;;;;5297671;26;19996;-80
2024/04/23 04:43:30;;;;;;;8.35;5.88;;;4.00;96.60;;;;;;5346145;26;20015;-82
2024/04/23 04:45:56;;;;;;;7.32;5.70;;;4.00;96.60;;;;;;5377694;26;19996;-81
2024/04/23 04:48:21;;;;;;;6.63;5.28;;;4.00;96.70;;;;;;5380211;26;20008;-81
2024/04/23 04:50:47;;;;;;;8.32;5.85;;;3.90;96.70;;;;;;5304110;26;20432;-81
2024/04/23 04:53:13;;;;;;;8.07;6.22;;;4.00;96.70;;;;;;5289393;26;19997;-81
2024/04/23 04:55:38;;;;;;;6.93;5.85;;;3.90;96.70;;;;;;5270032;26;20004;-81
2024/04/23 04:58:04;;;;;;;7.10;5.55;;;3.90;96.80;;;;;;5303758;26;20041;-81
2024/04/23 05:00:37;;;;;;;7.50;5.75;;;3.90;96.80;;;;;;5328399;26;19993;-81
2024/04/23 05:03:03;;;;;;;7.05;5.50;;;3.90;96.80;;;;;;5339187;26;20000;-81
2024/04/23 05:05:29;;;;;;;8.23;5.72;;;3.90;96.90;;;;;;5310756;26;20050;-81
2024/04/23 05:07:54;;;;;;;7.57;5.97;;;3.90;96.90;;;;;;5319334;26;19993;-81
2024/04/23 05:10:20;;;;;;;7.35;5.75;;;3.90;96.90;;;;;;5328416;26;20067;-81
2024/04/23 05:12:45;;;;;;;7.72;6.10;;;3.90;97.00;;;;;;5353259;26;20009;-81
2024/04/23 05:15:11;;;;;;;8.48;6.00;;;4.00;97.00;;;;;;5342187;26;20008;-80
2024/04/23 05:17:37;;;;;;;7.53;5.75;;;4.00;97.10;;;;;;5338534;26;20070;-81
2024/04/23 05:20:03;;;;;;;8.48;6.47;;;4.00;97.10;;;;;;5334585;26;19997;-80
2024/04/23 05:22:28;;;;;;;7.53;6.28;;;4.00;97.20;;;;;;5337029;26;20390;-81
2024/04/23 05:24:54;;;;;;;7.50;6.40;;;4.00;97.20;;;;;;5304824;26;20001;-81
2024/04/23 05:27:19;;;;;;;8.27;6.30;;;4.00;97.20;;;;;;5347819;26;20001;-80
2024/04/23 05:29:51;;;;;;;8.63;5.88;;;4.00;97.30;;;;;;5320591;26;20009;-80
2024/04/23 05:35:02;;;;;;;9.15;5.90;;;4.10;97.40;;;;;;5320876;26;20281;-81
2024/04/23 05:37:27;;;;;;;8.05;5.95;;;4.20;97.40;;;;;;5291186;26;20012;-81
2024/04/23 05:39:53;;;;;;;8.48;6.80;;;4.20;97.40;;;;;;5310479;26;20047;-81
2024/04/23 05:42:18;;;;;;;9.32;6.68;;;4.20;97.40;;;;;;5347281;26;19997;-79
2024/04/23 05:44:44;;;;;;;9.60;6.97;;;4.30;97.50;;;;;;5317701;26;20051;-80
2024/04/23 05:47:10;;;;;;;11.07;7.72;;;4.30;97.50;;;;;;5296905;26;20004;-80
2024/04/23 05:50:13;;;;;;;9.48;6.95;;;4.30;97.60;;;;;;5300650;26;20493;-81
2024/04/23 05:53:16;;;;;;;8.98;6.78;;;4.40;97.70;;;;;;5318788;26;20013;-81
2024/04/23 05:55:42;;;;;;;8.43;6.85;;;4.40;97.70;;;;;;5382234;26;20039;-81
2024/04/23 05:58:08;;;;;;;7.45;6.47;;;4.50;97.60;;;;;;5346515;26;20009;-81
2024/04/23 06:00:35;;;;;;;8.57;6.50;;;4.50;97.60;;;;;;5317143;26;19993;-81
2024/04/23 06:03:01;;;;;;;9.40;7.00;;;4.60;97.70;;;;;;5318359;26;20005;-81
2024/04/23 06:05:27;;;;;;;7.95;6.57;;;4.60;97.70;;;;;;5322198;26;20037;-81
2024/04/23 06:07:54;;;;;;;9.10;6.75;;;4.70;97.70;;;;;;5364458;26;20008;-81
2024/04/23 06:10:20;;;;;;;9.18;6.72;;;4.70;97.70;;;;;;5268792;26;20094;-81
2024/04/23 06:12:45;;;;;;;9.07;7.00;;;4.80;97.70;;;;;;5317173;26;20440;-81
2024/04/23 06:15:11;;;;;;;8.75;6.95;;;4.80;97.70;;;;;;5365184;26;20004;-81
2024/04/23 06:17:37;;;;;;;9.55;7.03;;;4.90;97.70;;;;;;5319394;26;20017;-81
2024/04/23 06:20:04;;;;;;;10.93;7.55;;;4.90;97.70;;;;;;5317507;26;19997;-81
2024/04/23 06:22:31;;;;;;;9.90;7.22;;;5.00;97.70;;;;;;5295810;26;20008;-81
2024/04/23 06:24:57;;;;;;;9.05;7.53;;;5.00;97.70;;;;;;5351864;26;20004;-81
2024/04/23 06:27:24;;;;;;;9.43;7.68;;;5.10;97.70;;;;;;5345480;26;20007;-79
2024/04/23 06:29:50;;;;;;;9.93;8.00;;;5.20;97.70;;;;;;5293876;26;20021;-81
2024/04/23 06:32:19;;;;;;;11.48;8.07;;;5.30;97.70;;;;;;5321702;26;19997;-80
2024/04/23 06:34:46;;;;;;;9.60;7.20;;;5.40;97.60;;;;;;5369377;26;20005;-79
2024/04/23 06:37:12;;;;;;;8.60;6.80;;;5.40;97.60;;;;;;5293948;26;20332;-80
2024/04/23 06:39:43;;;;;;;8.95;7.22;;;5.50;97.60;;;;;;5344333;26;19996;-80
2024/04/23 06:42:09;;;;;;;10.95;7.30;;;5.60;97.60;;;;;;5318862;26;20004;-80
2024/04/23 06:44:35;;;;;;;8.65;7.43;;;5.70;97.50;;;;;;5289045;26;20013;-79
2024/04/23 06:47:00;;;;;;;10.02;7.97;;;5.80;97.50;;;;;;5317151;26;20047;-79
2024/04/23 06:49:26;;;;;;;10.63;8.93;;;5.90;97.50;;;;;;5380912;26;20000;-80
2024/04/23 06:51:52;;;;;;;10.05;8.48;;;5.80;97.50;;;;;;5323760;26;20007;-80
2024/04/23 06:54:18;;;;;;;10.05;7.53;;;5.90;97.60;;;;;;5362252;26;20004;-80
2024/04/23 06:56:44;;;;;;;8.38;7.40;;;6.00;97.60;;;;;;5344038;26;20000;-80
2024/04/23 06:59:10;;;;;;;11.10;8.07;;;6.00;97.60;;;;;;5353949;26;19992;-81
2024/04/23 07:01:36;;;;;;;9.27;7.93;;;6.20;97.60;;;;;;5345074;26;20004;-79
2024/04/23 07:04:02;;;;;;;9.27;7.68;;;6.20;97.50;;;;;;5312873;26;19997;-80
2024/04/23 07:06:28;;;;;;;9.27;7.90;;;6.30;97.50;;;;;;5357547;26;20019;-80
2024/04/23 07:08:53;;;;;;;8.77;7.40;;;6.40;97.50;;;;;;5386759;26;20058;-81
2024/04/23 07:11:19;;;;;;;9.88;7.45;;;6.50;97.50;;;;;;5351558;26;20024;-80
2024/04/23 07:13:46;;;;;;;9.05;7.80;;;6.60;97.50;;;;;;5322727;26;19997;-80
2024/04/23 07:16:15;;;;;;;8.23;7.10;;;6.60;97.50;;;;;;5351448;26;20024;-80
2024/04/23 07:18:41;;;;;;;9.35;7.00;;;6.70;97.70;;;;;;5327731;26;19997;-80
2024/04/23 07:21:07;;;;;;;9.13;7.50;;;6.80;97.40;;;;;;5319152;26;20001;-81
2024/04/23 07:23:33;;;;;;;7.95;6.63;;;6.90;97.40;;;;;;5348026;26;20000;-81
2024/04/23 07:25:58;;;;;;;8.77;6.47;;;7.00;97.30;;;;;;5350861;26;20065;-80
2024/04/23 07:28:24;;;;;;;10.25;6.60;;;7.10;97.30;;;;;;5353807;26;20001;-80
2024/04/23 07:30:50;;;;;;;7.82;6.43;;;7.20;97.20;;;;;;5316672;26;20074;-80
2024/04/23 07:33:16;;;;;;;7.82;5.97;;;7.20;97.10;;;;;;5350050;26;19996;-80
2024/04/23 07:35:45;;;;;;;8.05;6.47;;;7.30;97.00;;;;;;5343854;26;20502;-80
2024/04/23 07:38:12;;;;;;;8.07;6.65;;;7.40;97.00;;;;;;5338005;26;20008;-80
2024/04/23 07:40:39;;;;;;;9.13;6.57;;;7.50;96.90;;;;;;5342917;26;20005;-80
2024/04/23 07:43:05;;;;;;;6.93;6.15;;;7.60;96.80;;;;;;5370997;26;19996;-80
2024/04/23 07:45:34;;;;;;;8.63;6.60;;;7.70;96.60;;;;;;5350993;26;20036;-81
2024/04/23 07:48:01;;;;;;;8.05;6.32;;;7.70;96.60;;;;;;5318566;26;20217;-80
2024/04/23 07:50:27;;;;;;;7.00;6.00;;;7.80;96.60;;;;;;5280691;26;20044;-80
2024/04/23 07:52:52;;;;;;;8.52;6.25;;;7.90;96.50;;;;;;5316256;26;20028;-80
2024/04/23 07:55:18;;;;;;;7.00;6.28;;;7.90;96.50;;;;;;5287463;26;20003;-80
2024/04/23 07:57:44;;;;;;;8.20;6.10;;;8.00;96.50;;;;;;5344842;26;19997;-81
2024/04/23 08:00:11;;;;;;;7.72;6.93;;;8.10;96.50;;;;;;5345839;26;20366;-81
2024/04/23 08:02:38;;;;;;;8.27;6.03;;;8.10;96.50;;;;;;5350638;26;19993;-81
2024/04/23 08:05:04;;;;;;;6.97;6.03;;;8.30;96.40;;;;;;5315224;26;20013;-81
2024/04/23 08:07:30;;;;;;;7.25;6.38;;;8.30;96.40;;;;;;5349288;26;20432;-81
2024/04/23 08:09:56;;;;;;;8.00;6.57;;;8.40;96.40;;;;;;5380492;26;20073;-81
2024/04/23 08:12:21;;;;;;;7.18;6.10;;;8.50;96.30;;;;;;5321737;26;20003;-81
2024/04/23 08:14:54;;;;;;;5.70;5.10;;;8.60;96.20;;;;;;5307581;26;20041;-81
2024/04/23 08:17:21;;;;;;;6.38;4.90;;;8.60;96.00;;;;;;5287718;26;19992;-81
2024/04/23 08:19:46;;;;;;;8.43;5.65;;;8.60;95.60;;;;;;5336592;26;20004;-81
2024/04/23 08:22:12;;;;;;;7.57;6.40;;;8.70;95.50;;;;;;5296913;26;20015;-81
2024/04/23 08:24:38;;;;;;;7.38;5.85;;;8.60;95.10;;;;;;5385274;26;20004;-81
2024/04/23 08:27:03;;;;;;;5.90;5.20;;;8.60;94.90;;;;;;5338969;26;20000;-81
2024/04/23 08:29:29;;;;;;;5.70;4.72;;;8.70;94.80;;;;;;5373304;26;20035;-81
2024/04/23 08:31:55;;;;;;;5.22;4.50;;;8.70;94.80;;;;;;5379557;26;20008;-82
2024/04/23 08:34:21;;;;;;;6.28;4.47;;;8.90;94.80;;;;;;5313779;26;20016;-79
2024/04/23 08:36:47;;;;;;;5.70;4.60;;;8.90;94.70;;;;;;5360466;26;20007;-81
2024/04/23 08:39:12;;;;;;;5.60;4.32;;;9.00;94.70;;;;;;5345966;26;19997;-81
2024/04/23 08:41:41;;;;;;;5.03;4.03;;;9.10;94.70;;;;;;5319208;26;19993;-81
2024/04/23 08:44:11;;;;;;;5.30;4.50;;;9.30;94.70;;;;;;5334212;26;20451;-81
2024/04/23 08:46:39;;;;;;;5.15;4.53;;;9.40;94.60;;;;;;5353205;26;20007;-81
2024/04/23 08:49:06;;;;;;;5.50;4.60;;;9.40;94.50;;;;;;5383644;26;19997;-81
2024/04/23 08:51:33;;;;;;;6.20;4.75;;;9.50;94.50;;;;;;5353290;26;19992;-81
2024/04/23 08:53:59;;;;;;;6.10;4.43;;;9.50;94.40;;;;;;5344540;26;20009;-81
2024/04/23 08:56:30;;;;;;;5.65;4.47;;;9.60;94.60;;;;;;5318448;26;19996;-81
2024/04/23 08:58:56;;;;;;;5.50;4.60;;;9.60;94.20;;;;;;5377082;26;20004;-81
2024/04/23 09:01:27;;;;;;;7.03;4.57;;;9.70;94.20;;;;;;5353502;26;20004;-81
2024/04/23 09:03:55;;;;;;;5.78;4.88;;;9.80;94.10;;;;;;5383459;26;20028;-80
2024/04/23 09:06:21;;;;;;;6.05;4.40;;;9.90;94.10;;;;;;5383798;26;20329;-81
2024/04/23 09:08:47;;;;;;;5.10;4.60;;;10.00;93.90;;;;;;5316990;26;20009;-81
2024/04/23 09:11:16;;;;;;;6.03;4.93;;;10.00;93.80;;;;;;5350367;26;20317;-81
2024/04/23 09:13:42;;;;;;;4.75;4.13;;;10.10;93.70;;;;;;5347662;26;20040;-80
2024/04/23 09:16:09;;;;;;;5.78;4.35;;;10.10;93.60;;;;;;5367414;26;20017;-80
2024/04/23 09:18:34;;;;;;;4.18;3.75;;;10.20;93.20;;;;;;5326277;26;19996;-80
2024/04/23 09:21:04;;;;;;;6.05;4.90;;;10.30;93.10;;;;;;5350965;26;20020;-80
2024/04/23 09:23:33;;;;;;;6.38;4.60;;;10.20;92.60;;;;;;5323462;26;20012;-80
2024/04/23 09:26:06;;;;;;;4.10;3.70;;;10.20;92.50;;;;;;5358074;26;20007;-80
2024/04/23 09:28:33;;;;;;;3.92;3.50;;;10.20;92.80;;;;;;5297774;26;20023;-81
2024/04/23 09:30:59;;;;;;;4.97;3.92;;;10.40;92.70;;;;;;5316210;26;20437;-80
2024/04/23 09:33:31;;;;;;;4.72;3.28;;;10.50;92.60;;;;;;5350205;26;20031;-80
2024/04/23 09:36:04;;;;;;;3.78;3.38;;;10.60;92.50;;;;;;5344274;26;20011;-81
2024/04/23 09:38:37;;;;;;;4.20;3.45;;;10.70;92.60;;;;;;5383805;26;20454;-81
2024/04/23 09:41:07;;;;;;;4.20;3.33;;;10.90;92.30;;;;;;5317665;26;20354;-81
2024/04/23 09:43:34;;;;;;;3.65;3.35;;;11.00;92.40;;;;;;5325369;26;19992;-82
2024/04/23 09:46:03;;;;;;;3.92;3.38;;;11.20;92.30;;;;;;5323958;26;20000;-81
2024/04/23 09:48:33;;;;;;;3.97;3.58;;;11.30;92.20;;;;;;5349560;26;20319;-81
2024/04/23 09:51:05;;;;;;;5.00;3.97;;;11.40;92.00;;;;;;5379982;26;20011;-82
2024/04/23 09:53:36;;;;;;;3.78;3.15;;;11.40;91.80;;;;;;5326673;26;19993;-81
2024/04/23 09:56:06;;;;;;;4.07;3.08;;;11.50;91.50;;;;;;5336900;26;19992;-83
2024/04/23 09:58:33;;;;;;;4.03;3.63;;;11.60;91.40;;;;;;5342108;26;20005;-80
2024/04/23 10:01:00;;;;;;;3.83;3.30;;;11.70;91.30;;;;;;5340896;26;19989;-81
2024/04/23 10:03:29;;;;;;;4.03;3.50;;;11.80;91.40;;;;;;5346320;26;20016;-80
2024/04/23 10:06:10;;;;;;;4.80;3.10;;;11.90;91.30;;;;;;5350790;26;20004;-80
2024/04/23 10:08:51;;;;;;;3.88;3.10;;;12.00;91.10;;;;;;5297528;26;20003;-80
2024/04/23 10:11:36;;;;;;;3.53;2.88;;;12.10;90.90;;;;;;5352400;26;20008;-80
2024/04/23 10:14:20;;;;;;;5.40;2.95;;;12.10;90.80;;;;;;5349083;26;19996;-80
2024/04/23 10:17:02;;;;;;;4.05;3.08;;;12.20;90.40;;;;;;5337283;26;19992;-80
2024/04/23 10:19:29;;;;;;;4.10;3.22;;;12.20;90.30;;;;;;5338044;26;20012;-81
2024/04/23 10:22:01;;;;;;;3.85;3.15;;;12.30;90.40;;;;;;5350642;26;20447;-81
2024/04/23 10:24:26;;;;;;;3.13;2.83;;;12.30;90.30;;;;;;5346448;26;20008;-81
2024/04/23 10:26:53;;;;;;;4.88;2.78;;;12.40;90.20;;;;;;5317456;26;20004;-81
2024/04/23 10:29:19;;;;;;;3.72;2.90;;;12.40;89.60;;;;;;5298396;26;20007;-81
2024/04/23 10:31:45;;;;;;;2.83;2.60;;;12.40;88.80;;;;;;5315560;26;20376;-81
2024/04/23 10:34:15;;;;;;;3.15;2.40;;;12.50;88.50;;;;;;5260675;26;20070;-81
2024/04/23 10:36:42;;;;;;;3.00;2.60;;;12.50;88.40;;;;;;5347702;26;20004;-80
2024/04/23 10:39:12;;;;;;;3.70;2.80;;;12.60;88.20;;;;;;5271429;26;19997;-81
2024/04/23 10:41:38;;;;;;;3.95;2.75;;;12.60;87.90;;;;;;5318005;26;20486;-81
2024/04/23 10:44:08;;;;;;;3.25;2.83;;;12.60;87.80;;;;;;5340291;26;20004;-82
2024/04/23 10:46:34;;;;;;;3.80;3.42;;;12.50;87.30;;;;;;5345649;26;20032;-81
2024/04/23 10:49:16;;;;;;;5.03;4.00;;;12.50;86.40;;;;;;5316922;26;20005;-81
2024/04/23 10:51:46;;;;;;;4.03;3.33;;;12.30;85.20;;;;;;5320374;26;20012;-81
2024/04/23 10:54:20;;;;;;;4.78;3.50;;;12.10;85.70;;;;;;5351199;26;19996;-81
2024/04/23 10:57:04;;;;;;;4.22;3.30;;;12.10;86.10;;;;;;5351550;26;20041;-81
2024/04/23 10:59:31;;;;;;;3.75;2.90;;;12.00;86.20;;;;;;5320459;26;20012;-81
2024/04/23 11:01:58;;;;;;;3.83;3.42;;;12.00;86.40;;;;;;5316749;26;20012;-81
2024/04/23 11:04:28;;;;;;;3.97;3.30;;;12.00;85.20;;;;;;5346940;26;19997;-80
2024/04/23 11:07:04;;;;;;;2.90;2.60;;;11.90;85.00;;;;;;5308219;26;20012;-81
2024/04/23 11:09:38;;;;;;;3.80;2.83;;;11.90;85.50;;;;;;5353842;26;19993;-81
2024/04/23 11:12:14;;;;;;;3.53;2.80;;;12.00;85.80;;;;;;5348594;26;20000;-81
2024/04/23 11:14:40;;;;;;;3.22;2.80;;;12.10;86.00;;;;;;5382155;26;19988;-80
2024/04/23 11:17:05;;;;;;;4.22;3.05;;;12.10;86.20;;;;;;5317110;26;20001;-81
2024/04/23 11:19:38;;;;;;;4.60;2.83;;;12.10;86.00;;;;;;5351474;26;20073;-81
2024/04/23 11:22:15;;;;;;;3.28;2.97;;;12.10;85.80;;;;;;5351115;26;20016;-80
2024/04/23 11:25:03;;;;;;;3.30;2.78;;;12.10;85.40;;;;;;5350782;26;20036;-81
2024/04/23 11:27:30;;;;;;;3.75;3.08;;;12.00;85.00;;;;;;5382778;26;20073;-81
2024/04/23 11:29:56;;;;;;;3.97;3.42;;;12.00;84.80;;;;;;5374288;26;19991;-80
2024/04/23 11:32:21;;;;;;;3.88;3.47;;;12.00;85.20;;;;;;5346714;26;19992;-81
2024/04/23 11:34:51;;;;;;;4.57;3.47;;;12.10;85.20;;;;;;5344056;26;20001;-81
2024/04/23 11:37:25;;;;;;;4.20;3.75;;;12.10;85.30;;;;;;5364591;26;20013;-78
2024/04/23 11:40:00;;;;;;;5.15;3.53;;;12.20;85.70;;;;;;5337414;26;20002;-81
2024/04/23 11:42:27;;;;;;;4.55;3.80;;;12.30;86.00;;;;;;5311193;27;20040;-81
2024/04/23 11:45:11;;;;;;;3.60;3.30;;;12.40;85.90;;;;;;5336700;26;20047;-81
2024/04/23 11:47:36;;;;;;;4.43;3.55;;;12.50;85.60;;;;;;5344982;26;20075;-81
2024/04/23 11:50:07;;;;;;;5.57;3.22;;;12.50;85.80;;;;;;5316235;26;20021;-81
2024/04/23 11:52:33;;;;;;;4.13;3.33;;;12.60;86.00;;;;;;5317213;26;20063;-81
2024/04/23 11:54:59;;;;;;;4.13;3.55;;;12.70;85.30;;;;;;5325403;26;20009;-81
2024/04/23 11:57:25;;;;;;;3.45;2.97;;;12.80;84.80;;;;;;5319654;26;19997;-80
2024/04/23 11:59:51;;;;;;;3.47;3.10;;;12.90;84.70;;;;;;5315562;26;20420;-79
2024/04/23 12:02:17;;;;;;;3.83;3.22;;;13.00;84.80;;;;;;5320351;26;20444;-81
2024/04/23 12:04:44;;;;;;;3.08;2.78;;;13.00;84.20;;;;;;5319147;26;20008;-81
2024/04/23 12:07:11;;;;;;;3.20;2.90;;;13.00;84.20;;;;;;5346327;26;19997;-81
2024/04/23 12:09:37;;;;;;;3.95;3.10;;;13.10;84.10;;;;;;5332218;26;20021;-81
2024/04/23 12:12:03;;;;;;;4.10;3.05;;;13.10;83.80;;;;;;5318985;26;19997;-81
2024/04/23 12:14:30;;;;;;;4.00;2.70;;;13.20;83.80;;;;;;5347250;26;20005;-81
2024/04/23 12:16:58;;;;;;;3.45;2.80;;;13.30;83.80;;;;;;5349449;26;20001;-81
2024/04/23 12:19:24;;;;;;;3.15;2.40;;;13.30;83.40;;;;;;5347147;26;19993;-81
2024/04/23 12:21:50;;;;;;;2.40;2.10;;;13.30;82.80;;;;;;5347230;26;20333;-81
2024/04/23 12:24:16;;;;;;;2.42;2.22;;;13.30;82.80;;;;;;5312896;27;20009;-81
2024/04/23 12:26:43;;;;;;;2.03;1.85;;;13.30;83.00;;;;;;5313076;27;19994;-81
2024/04/23 12:29:09;;;;;;;2.25;2.05;;;13.30;82.80;;;;;;5316877;26;20345;-81
2024/04/23 12:31:34;;;;;;;2.30;2.08;;;13.40;82.20;;;;;;5284635;27;20005;-81
2024/04/23 12:34:00;;;;;;;2.78;2.30;;;13.30;81.80;;;;;;5327960;26;20012;-81
2024/04/23 12:36:27;;;;;;;2.72;2.50;;;13.30;81.30;;;;;;5349166;26;20033;-81
2024/04/23 12:38:53;;;;;;;3.58;2.60;;;13.30;81.00;;;;;;5346841;26;20005;-80
2024/04/23 12:41:20;;;;;;;3.42;2.40;;;13.30;81.00;;;;;;5318000;26;20016;-81
2024/04/23 12:43:49;;;;;;;3.08;2.08;;;13.30;80.90;;;;;;5347369;26;20013;-81
2024/04/23 12:46:16;;;;;;;2.88;2.08;;;13.40;80.60;;;;;;5338937;26;20002;-81
2024/04/23 12:48:43;;;;;;;4.47;2.40;;;13.30;80.80;;;;;;5335607;26;20464;-79
2024/04/23 12:51:10;;;;;;;2.60;2.22;;;13.30;80.50;;;;;;5347291;26;19996;-82
2024/04/23 12:53:36;;;;;;;3.42;2.28;;;13.20;80.40;;;;;;5349012;26;20008;-81
2024/04/23 12:56:02;;;;;;;3.05;2.42;;;13.20;80.20;;;;;;5346943;26;20040;-81
2024/04/23 12:58:30;;;;;;;3.45;2.28;;;13.20;80.30;;;;;;5318701;26;20000;-81
2024/04/23 13:00:56;;;;;;;2.75;1.77;;;13.20;80.30;;;;;;5307539;26;19998;-81
2024/04/23 13:03:24;;;;;;;2.55;1.90;;;13.20;80.30;;;;;;5325753;26;20004;-81